Terminal Aerodrome Forecast
Issued by NWS Pendleton, OR

Home | Current Version | Previous Version | Text Only | Print | Product List | Glossary On
Versions: 1 2 3 4 5 6 7 8 9 10 11 12 13 14 15 16 17 18 19 20 21
000
FTUS46 KPDT 222300
TAFPDT
TAF
KPDT 222320Z 2300/2324 18012G20KT P6SM -SHRA OVC080
     FM230300 18010KT P6SM -SHRA OVC070
     FM231200 19008KT P6SM -SHRA OVC060
     FM232000 25012G20KT P6SM VCSH OVC070=

USA.gov is the U.S. government's official web portal to all federal, state and local government web resources and services.